Austin Bergstrom International Airport
KAUS : now visible

Airfield :











YOU CAN JOIN US ON...

 
LOGIN :

Register | Disclaimer

   EN    FR    IT 

 









Legend :    VFR   Marginal VFR   IFR   Intensive IFR   Very Intensive IFR
Visi :
Ceiling :
>= 8 km
>= 3000ft
5 to 8 km
1000 to 3000 ft
1500m to 5 km
500 to 1000 ft
800 to 1500m
200 to 500 ft
< 800m
< 200 ft
Symbols :   Thunderstorms  Fog  Heavy snow  Heavy precipitations  Wind > 20 kt






- Airport Elevation : 542 ft
- IATA code : AUS


KAUS - Austin Bergstrom International

CURRENT METAR :
  • 260453Z 19003KT 10SM FEW250 22/21 A2994 RMK AO2 SLP130 T02170206

EXPIRED METARs :
  • 260353Z 00000KT 10SM FEW120 21/20 A2995 RMK AO2 SLP135 T02060200
  • 260253Z 00000KT 10SM CLR 21/21 A2995 RMK AO2 SLP134 T02110206 51009

TAF KAUS
Valid from the 26 at 00:00 until the 27 at 06:00 UTC


252331Z 2600/2706 15007KT P6SM SKC
FM260500 17005KT P6SM SCT010 SCT250
FM261000 18006KT 5SM BR OVC007
FM261600 17012KT P6SM BKN012 OVC250
FM261800 17013G25KT P6SM BKN035 OVC250
KZHU FIR / North America



MET'MAP, your aeronautical weather chart ! - Copyright ORBIFLY December 2007 - Disclaimer

ORBIFLY MET'MAP TEAM :

Programming & Development : Alexandra Zaïnal
Concept & original design : Baudouin d'Aumeries
Assistance for programming : Marc-Olivier Méhu
Technical & hardware support : Manuel Goepfert

Contact : metmap@orbifly.com




SOURCES & CREDITS :

   NOAA       Earth
Advisory